createdAt,value
2023-05-17T00:12:29.611Z,6.00
2023-05-17T00:14:56.986Z,6.00
2023-05-17T00:17:24.572Z,6.00
2023-05-17T00:22:41.159Z,6.10
2023-05-17T00:25:08.356Z,6.20
2023-05-17T00:27:35.470Z,6.20
2023-05-17T00:30:02.611Z,6.10
2023-05-17T00:32:29.824Z,6.00
2023-05-17T00:34:57.163Z,6.10
2023-05-17T00:37:24.353Z,6.10
2023-05-17T00:39:51.757Z,6.10
2023-05-17T00:44:54.364Z,6.10
2023-05-17T00:55:21.414Z,6.10
2023-05-17T00:57:49.318Z,6.20
2023-05-17T02:02:54.179Z,6.30
2023-05-17T03:52:35.626Z,6.70
2023-05-17T03:55:03.116Z,6.60
2023-05-17T03:57:30.129Z,6.70
2023-05-17T03:59:57.592Z,6.80
2023-05-17T04:02:24.685Z,6.80
2023-05-17T04:10:49.616Z,6.70
2023-05-17T04:13:17.024Z,6.70
2023-05-17T05:21:58.963Z,7.40
2023-05-17T05:24:26.085Z,7.50
2023-05-17T05:26:53.211Z,7.50
2023-05-17T05:29:20.279Z,7.50
2023-05-17T05:50:35.233Z,7.30
2023-05-17T05:53:10.880Z,7.40
2023-05-17T05:55:47.107Z,7.40
2023-05-17T05:58:14.464Z,7.60
2023-05-17T06:00:44.771Z,7.70
2023-05-17T06:03:12.075Z,7.80
2023-05-17T06:08:14.891Z,7.90
2023-05-17T06:15:59.998Z,8.20
2023-05-17T06:18:27.162Z,8.20
2023-05-17T06:20:54.318Z,8.40
2023-05-17T06:23:21.422Z,8.50
2023-05-17T06:25:48.461Z,8.50
2023-05-17T06:28:15.681Z,8.50
2023-05-17T06:30:43.324Z,8.60
2023-05-17T06:33:12.980Z,8.50
2023-05-17T06:35:54.807Z,8.50
2023-05-17T06:38:23.950Z,8.50
2023-05-17T06:40:55.708Z,8.60
2023-05-17T06:43:23.517Z,8.80
2023-05-17T06:45:51.645Z,8.90
2023-05-17T06:50:54.512Z,9.40
2023-05-17T06:53:21.652Z,9.70
2023-05-17T06:58:52.022Z,10.00
2023-05-17T07:26:33.232Z,11.10
2023-05-17T07:34:45.919Z,11.60
2023-05-17T07:37:13.118Z,11.90
2023-05-17T07:39:40.446Z,12.30
2023-05-17T07:42:07.943Z,12.80
2023-05-17T07:44:35.097Z,12.90
2023-05-17T07:47:02.198Z,13.20
2023-05-17T07:49:31.971Z,13.60
2023-05-17T07:51:59.078Z,13.90
2023-05-17T07:54:30.053Z,14.00
2023-05-17T07:56:57.293Z,14.30
2023-05-17T08:10:05.263Z,15.30
2023-05-17T08:15:08.335Z,15.60
2023-05-17T08:17:35.357Z,15.80
2023-05-17T08:20:02.610Z,16.20
2023-05-17T08:22:29.908Z,16.30
2023-05-17T08:24:56.901Z,16.70
2023-05-17T08:27:25.668Z,16.60
2023-05-17T08:29:54.980Z,16.70
2023-05-17T08:32:24.539Z,16.90
2023-05-17T08:34:51.931Z,17.20
2023-05-17T08:37:19.365Z,17.70
2023-05-17T08:39:46.813Z,17.50
2023-05-17T08:42:14.994Z,17.80
2023-05-17T08:44:42.249Z,18.00
2023-05-17T08:47:12.126Z,18.30
2023-05-17T08:49:40.864Z,18.60
2023-05-17T08:52:10.551Z,19.00
2023-05-17T08:54:37.909Z,18.90
2023-05-17T08:57:06.890Z,18.20
2023-05-17T08:59:35.443Z,17.50
2023-05-17T09:02:02.667Z,17.80
2023-05-17T09:04:33.088Z,18.00
2023-05-17T09:07:00.299Z,18.30
2023-05-17T09:09:27.938Z,18.60
2023-05-17T09:11:55.488Z,18.80
2023-05-17T09:14:22.547Z,19.00
2023-05-17T09:16:58.305Z,18.80
2023-05-17T09:19:25.844Z,19.10
2023-05-17T09:21:55.302Z,19.30
2023-05-17T09:24:30.295Z,19.60
2023-05-17T09:27:04.327Z,19.80
2023-05-17T09:32:17.865Z,19.80
2023-05-17T09:34:47.084Z,19.70
2023-05-17T09:37:17.216Z,20.00
2023-05-17T09:39:48.059Z,20.20
2023-05-17T09:47:45.850Z,19.80
2023-05-17T09:55:31.703Z,19.70
2023-05-17T09:58:04.171Z,20.30
2023-05-17T10:00:32.417Z,20.60
2023-05-17T10:03:00.353Z,20.10
2023-05-17T10:05:28.051Z,20.00
2023-05-17T10:07:56.992Z,20.10
2023-05-17T10:10:24.342Z,20.30
2023-05-17T10:12:52.644Z,20.90
2023-05-17T10:15:21.081Z,20.90
2023-05-17T10:17:48.374Z,20.70
2023-05-17T10:20:17.653Z,20.80
2023-05-17T10:22:45.815Z,20.70
2023-05-17T10:25:13.724Z,21.00
2023-05-17T10:27:41.999Z,20.70
2023-05-17T10:30:10.329Z,20.30
2023-05-17T10:32:38.441Z,20.70
2023-05-17T10:35:11.819Z,20.60
2023-05-17T10:37:40.737Z,20.70
2023-05-17T10:40:15.229Z,21.10
2023-05-17T10:42:46.951Z,21.20
2023-05-17T10:45:14.906Z,21.70
2023-05-17T10:47:42.851Z,21.70
2023-05-17T10:50:15.323Z,21.70
2023-05-17T10:52:49.769Z,21.40
2023-05-17T10:55:25.153Z,21.40
2023-05-17T10:58:11.691Z,21.20
2023-05-17T11:00:43.054Z,20.50
2023-05-17T11:03:26.324Z,20.30
2023-05-17T14:50:38.939Z,19.40
2023-05-17T14:53:06.651Z,19.60
2023-05-17T14:55:33.653Z,19.80
2023-05-17T14:58:02.000Z,19.80
2023-05-17T15:00:29.610Z,19.80
2023-05-17T15:02:56.925Z,19.80
2023-05-17T15:05:24.616Z,19.40
2023-05-17T15:10:27.152Z,19.10
2023-05-17T16:21:59.955Z,17.60
2023-05-17T16:36:50.797Z,17.30
2023-05-17T16:39:18.736Z,17.10
2023-05-17T18:56:25.212Z,13.10
2023-05-17T18:58:55.487Z,13.00
2023-05-17T19:01:22.587Z,13.10
2023-05-17T19:03:56.891Z,13.00
2023-05-17T19:06:25.258Z,12.90
2023-05-17T19:08:52.391Z,13.00
2023-05-17T19:11:19.476Z,12.90
2023-05-17T19:13:46.538Z,12.90
2023-05-17T19:16:15.614Z,12.80
2023-05-17T19:18:42.729Z,12.70
2023-05-17T19:21:09.803Z,12.70
2023-05-17T19:23:36.961Z,12.50
2023-05-17T19:26:04.200Z,12.50
2023-05-17T19:28:33.161Z,12.50
2023-05-17T19:31:00.294Z,12.50
2023-05-17T19:33:27.261Z,12.50
2023-05-17T19:35:54.237Z,12.40
2023-05-17T19:38:21.392Z,12.30
2023-05-17T19:40:48.571Z,12.30
2023-05-17T19:43:16.009Z,12.30
2023-05-17T19:45:43.437Z,12.20
2023-05-17T19:48:10.366Z,12.10
2023-05-17T19:50:37.640Z,12.10
2023-05-17T19:53:04.701Z,12.00
2023-05-17T19:55:32.095Z,11.90
2023-05-17T19:57:59.132Z,11.90
2023-05-17T20:00:26.283Z,11.80
2023-05-17T20:02:53.344Z,11.90
2023-05-17T20:05:20.723Z,11.80
2023-05-17T20:07:47.929Z,11.70
2023-05-17T20:10:14.907Z,11.70
2023-05-17T20:12:42.104Z,11.60
2023-05-17T20:15:09.821Z,11.50
2023-05-17T20:17:36.930Z,11.40
2023-05-17T20:20:05.376Z,11.40
2023-05-17T20:22:33.356Z,11.30
2023-05-17T20:25:00.491Z,11.20
2023-05-17T20:27:27.907Z,11.10
2023-05-17T20:29:54.910Z,11.10
2023-05-17T20:32:21.920Z,11.10
2023-05-17T20:34:48.983Z,11.20
2023-05-17T20:37:16.436Z,11.10
2023-05-17T20:39:43.697Z,11.10
2023-05-17T20:42:11.026Z,11.00
2023-05-17T20:44:37.994Z,11.00
2023-05-17T20:47:06.062Z,11.00
2023-05-17T20:49:33.127Z,11.00
2023-05-17T20:52:03.595Z,11.00
2023-05-17T20:54:30.875Z,11.10
2023-05-17T20:56:58.603Z,11.10
2023-05-17T20:59:26.600Z,11.10
2023-05-17T21:01:53.811Z,11.10
2023-05-17T21:04:21.050Z,11.10
2023-05-17T21:06:47.992Z,11.10
2023-05-17T21:09:15.083Z,11.10
2023-05-17T21:11:42.810Z,11.10
2023-05-17T21:14:09.983Z,11.00
2023-05-17T21:16:37.216Z,11.10
2023-05-17T21:19:04.474Z,11.10
2023-05-17T21:21:31.516Z,11.20
2023-05-17T21:23:58.503Z,11.10
2023-05-17T21:28:54.692Z,11.30
2023-05-17T21:31:21.778Z,11.30
2023-05-17T21:33:49.847Z,11.20
2023-05-17T21:36:16.960Z,11.30
2023-05-17T21:38:44.171Z,11.20
2023-05-17T21:41:11.597Z,11.20
2023-05-17T21:43:38.867Z,11.20
2023-05-17T21:46:05.974Z,11.20
2023-05-17T21:48:33.039Z,11.20
2023-05-17T21:50:59.995Z,11.20
2023-05-17T21:53:26.956Z,11.10
2023-05-17T21:56:01.888Z,11.10
2023-05-17T21:58:31.019Z,11.10
2023-05-17T22:00:58.624Z,11.10
2023-05-17T22:03:26.059Z,11.00
2023-05-17T22:05:53.205Z,10.90
2023-05-17T22:08:20.304Z,11.00
2023-05-17T22:10:47.661Z,11.00
2023-05-17T22:13:21.844Z,10.90
2023-05-17T22:15:48.861Z,10.80
2023-05-17T22:26:15.284Z,11.00
2023-05-17T22:28:42.503Z,11.00
2023-05-17T22:31:09.554Z,10.90
2023-05-17T22:33:36.663Z,10.90
2023-05-17T22:36:04.337Z,10.90
2023-05-17T22:38:31.470Z,10.90
2023-05-17T22:40:58.695Z,10.90
2023-05-17T22:43:26.154Z,10.80
2023-05-17T22:45:53.120Z,10.90
2023-05-17T22:48:20.283Z,10.80
2023-05-17T22:56:32.552Z,10.80
2023-05-17T22:58:59.521Z,10.70
2023-05-17T23:01:26.850Z,10.70
2023-05-17T23:03:53.924Z,10.70
2023-05-17T23:06:24.123Z,10.70
2023-05-17T23:08:53.021Z,10.70
2023-05-17T23:11:20.224Z,10.70
2023-05-17T23:13:47.176Z,10.70
2023-05-17T23:16:14.221Z,10.70
2023-05-17T23:18:41.657Z,10.70
2023-05-17T23:21:09.612Z,10.70
2023-05-17T23:23:38.159Z,10.70
2023-05-17T23:26:06.094Z,10.70
2023-05-17T23:28:33.322Z,10.70
2023-05-17T23:31:01.636Z,10.60
2023-05-17T23:33:31.346Z,10.60
2023-05-17T23:35:58.966Z,10.60
2023-05-17T23:38:26.823Z,10.60
2023-05-17T23:40:54.350Z,10.60
2023-05-17T23:43:21.399Z,10.60
2023-05-17T23:45:48.535Z,10.50
2023-05-17T23:48:16.262Z,10.50
2023-05-17T23:50:43.300Z,10.50
2023-05-17T23:53:10.414Z,10.50
2023-05-17T23:55:38.808Z,10.50
2023-05-17T23:58:06.087Z,10.50
